sensor_id;sensor_type;location;lat;lon;timestamp;temperature;humidity
76857;DHT22;66179;44.686;37.628;2023-02-28T00:00:25;6.49;88.23
76857;DHT22;66179;44.686;37.628;2023-02-28T00:02:52;6.53;88.25
76857;DHT22;66179;44.686;37.628;2023-02-28T00:05:22;6.38;88.67
76857;DHT22;66179;44.686;37.628;2023-02-28T00:07:50;6.30;88.79
76857;DHT22;66179;44.686;37.628;2023-02-28T00:10:19;6.24;89.12
76857;DHT22;66179;44.686;37.628;2023-02-28T00:12:47;6.16;89.34
76857;DHT22;66179;44.686;37.628;2023-02-28T00:15:15;6.15;89.73
76857;DHT22;66179;44.686;37.628;2023-02-28T00:17:42;6.09;89.71
76857;DHT22;66179;44.686;37.628;2023-02-28T00:20:10;6.04;90.18
76857;DHT22;66179;44.686;37.628;2023-02-28T00:22:41;6.08;90.21
76857;DHT22;66179;44.686;37.628;2023-02-28T00:25:09;6.11;89.60
76857;DHT22;66179;44.686;37.628;2023-02-28T00:27:38;6.05;89.37
76857;DHT22;66179;44.686;37.628;2023-02-28T00:30:06;5.96;90.00
76857;DHT22;66179;44.686;37.628;2023-02-28T00:32:35;5.90;89.88
76857;DHT22;66179;44.686;37.628;2023-02-28T00:35:03;5.77;90.23
76857;DHT22;66179;44.686;37.628;2023-02-28T00:37:30;5.76;90.37
76857;DHT22;66179;44.686;37.628;2023-02-28T00:39:57;5.68;90.45
76857;DHT22;66179;44.686;37.628;2023-02-28T00:42:24;5.63;90.36
76857;DHT22;66179;44.686;37.628;2023-02-28T00:44:51;5.60;90.81
76857;DHT22;66179;44.686;37.628;2023-02-28T00:47:18;5.70;90.76
76857;DHT22;66179;44.686;37.628;2023-02-28T00:49:46;5.84;89.53
76857;DHT22;66179;44.686;37.628;2023-02-28T00:52:12;5.80;90.41
76857;DHT22;66179;44.686;37.628;2023-02-28T00:54:39;5.69;90.37
76857;DHT22;66179;44.686;37.628;2023-02-28T00:57:07;5.66;90.57
76857;DHT22;66179;44.686;37.628;2023-02-28T00:59:35;5.62;90.63
76857;DHT22;66179;44.686;37.628;2023-02-28T01:02:04;5.51;90.63
76857;DHT22;66179;44.686;37.628;2023-02-28T01:04:31;5.45;91.28
76857;DHT22;66179;44.686;37.628;2023-02-28T01:07:01;5.50;90.95
76857;DHT22;66179;44.686;37.628;2023-02-28T01:09:29;5.51;91.89
76857;DHT22;66179;44.686;37.628;2023-02-28T01:11:56;5.55;91.69
76857;DHT22;66179;44.686;37.628;2023-02-28T01:14:24;5.59;91.36
76857;DHT22;66179;44.686;37.628;2023-02-28T01:16:50;5.60;91.43
76857;DHT22;66179;44.686;37.628;2023-02-28T01:19:18;5.57;90.74
76857;DHT22;66179;44.686;37.628;2023-02-28T01:21:46;5.53;91.02
76857;DHT22;66179;44.686;37.628;2023-02-28T01:24:13;5.46;91.20
76857;DHT22;66179;44.686;37.628;2023-02-28T01:26:40;5.45;91.41
76857;DHT22;66179;44.686;37.628;2023-02-28T01:29:07;5.50;91.28
76857;DHT22;66179;44.686;37.628;2023-02-28T01:31:34;5.50;91.27
76857;DHT22;66179;44.686;37.628;2023-02-28T01:34:01;5.48;91.16
76857;DHT22;66179;44.686;37.628;2023-02-28T01:36:29;5.43;91.50
76857;DHT22;66179;44.686;37.628;2023-02-28T01:38:56;5.46;91.31
76857;DHT22;66179;44.686;37.628;2023-02-28T01:41:26;5.41;90.87
76857;DHT22;66179;44.686;37.628;2023-02-28T01:44:05;5.42;91.08
76857;DHT22;66179;44.686;37.628;2023-02-28T01:46:34;5.34;90.80
76857;DHT22;66179;44.686;37.628;2023-02-28T01:49:15;5.27;90.69
76857;DHT22;66179;44.686;37.628;2023-02-28T01:51:46;5.17;91.06
76857;DHT22;66179;44.686;37.628;2023-02-28T01:54:21;5.09;91.44
76857;DHT22;66179;44.686;37.628;2023-02-28T01:56:53;5.02;92.01
76857;DHT22;66179;44.686;37.628;2023-02-28T01:59:25;4.98;92.14
76857;DHT22;66179;44.686;37.628;2023-02-28T02:01:53;5.00;91.85
76857;DHT22;66179;44.686;37.628;2023-02-28T02:04:23;4.97;91.98
76857;DHT22;66179;44.686;37.628;2023-02-28T02:06:52;4.94;92.46
76857;DHT22;66179;44.686;37.628;2023-02-28T02:09:18;4.92;92.56
76857;DHT22;66179;44.686;37.628;2023-02-28T02:11:46;4.98;92.25
76857;DHT22;66179;44.686;37.628;2023-02-28T02:14:47;4.96;92.55
76857;DHT22;66179;44.686;37.628;2023-02-28T02:25:56;4.93;92.27
76857;DHT22;66179;44.686;37.628;2023-02-28T02:31:28;4.95;92.10
76857;DHT22;66179;44.686;37.628;2023-02-28T02:39:23;4.91;92.01
76857;DHT22;66179;44.686;37.628;2023-02-28T02:41:59;4.83;92.24
76857;DHT22;66179;44.686;37.628;2023-02-28T02:44:31;4.80;92.15
76857;DHT22;66179;44.686;37.628;2023-02-28T02:47:05;4.77;93.03
76857;DHT22;66179;44.686;37.628;2023-02-28T02:49:36;4.81;93.01
76857;DHT22;66179;44.686;37.628;2023-02-28T02:52:07;4.80;92.37
76857;DHT22;66179;44.686;37.628;2023-02-28T02:54:41;4.73;92.40
76857;DHT22;66179;44.686;37.628;2023-02-28T02:57:27;4.68;93.01
76857;DHT22;66179;44.686;37.628;2023-02-28T02:59:57;4.67;93.17
76857;DHT22;66179;44.686;37.628;2023-02-28T03:02:25;4.75;92.72
76857;DHT22;66179;44.686;37.628;2023-02-28T03:04:59;4.74;92.62
76857;DHT22;66179;44.686;37.628;2023-02-28T03:07:28;4.78;92.88
76857;DHT22;66179;44.686;37.628;2023-02-28T03:09:56;4.81;92.86
76857;DHT22;66179;44.686;37.628;2023-02-28T03:12:39;4.83;92.66
76857;DHT22;66179;44.686;37.628;2023-02-28T03:15:12;4.86;92.30
76857;DHT22;66179;44.686;37.628;2023-02-28T03:23:42;4.61;92.17
76857;DHT22;66179;44.686;37.628;2023-02-28T03:26:20;4.62;92.69
76857;DHT22;66179;44.686;37.628;2023-02-28T03:33:51;4.56;92.82
76857;DHT22;66179;44.686;37.628;2023-02-28T03:36:28;4.63;92.57
76857;DHT22;66179;44.686;37.628;2023-02-28T03:39:04;4.60;92.24
76857;DHT22;66179;44.686;37.628;2023-02-28T03:41:40;4.60;92.29
76857;DHT22;66179;44.686;37.628;2023-02-28T03:44:17;4.57;92.18
76857;DHT22;66179;44.686;37.628;2023-02-28T03:46:58;4.57;92.59
76857;DHT22;66179;44.686;37.628;2023-02-28T03:49:30;4.64;92.71
76857;DHT22;66179;44.686;37.628;2023-02-28T03:52:01;4.66;93.13
76857;DHT22;66179;44.686;37.628;2023-02-28T03:54:31;4.74;92.36
76857;DHT22;66179;44.686;37.628;2023-02-28T03:56:59;4.71;92.28
76857;DHT22;66179;44.686;37.628;2023-02-28T04:01:59;4.69;92.03
76857;DHT22;66179;44.686;37.628;2023-02-28T04:04:26;4.61;91.72
76857;DHT22;66179;44.686;37.628;2023-02-28T04:07:01;4.53;92.18
76857;DHT22;66179;44.686;37.628;2023-02-28T04:09:28;4.47;92.16
76857;DHT22;66179;44.686;37.628;2023-02-28T04:11:55;4.46;92.18
76857;DHT22;66179;44.686;37.628;2023-02-28T04:14:22;4.47;92.31
76857;DHT22;66179;44.686;37.628;2023-02-28T04:16:49;4.52;92.19
76857;DHT22;66179;44.686;37.628;2023-02-28T04:19:17;4.67;92.10
76857;DHT22;66179;44.686;37.628;2023-02-28T04:21:46;4.59;92.18
76857;DHT22;66179;44.686;37.628;2023-02-28T04:24:16;4.62;92.95
76857;DHT22;66179;44.686;37.628;2023-02-28T04:26:48;4.65;92.88
76857;DHT22;66179;44.686;37.628;2023-02-28T04:29:20;4.67;93.03
76857;DHT22;66179;44.686;37.628;2023-02-28T04:31:47;4.73;92.59
76857;DHT22;66179;44.686;37.628;2023-02-28T04:34:14;4.74;92.55
76857;DHT22;66179;44.686;37.628;2023-02-28T04:36:41;4.81;92.24
76857;DHT22;66179;44.686;37.628;2023-02-28T04:39:08;4.82;92.37
76857;DHT22;66179;44.686;37.628;2023-02-28T04:41:36;4.86;92.23
76857;DHT22;66179;44.686;37.628;2023-02-28T04:44:03;4.92;92.23
76857;DHT22;66179;44.686;37.628;2023-02-28T04:46:29;4.97;92.03
76857;DHT22;66179;44.686;37.628;2023-02-28T04:48:57;5.06;91.84
76857;DHT22;66179;44.686;37.628;2023-02-28T04:51:24;5.09;92.09
76857;DHT22;66179;44.686;37.628;2023-02-28T04:53:51;5.24;91.53
76857;DHT22;66179;44.686;37.628;2023-02-28T04:56:18;5.31;91.01
76857;DHT22;66179;44.686;37.628;2023-02-28T04:58:46;5.32;90.99
76857;DHT22;66179;44.686;37.628;2023-02-28T05:03:45;5.40;91.44
76857;DHT22;66179;44.686;37.628;2023-02-28T05:06:12;5.48;91.30
76857;DHT22;66179;44.686;37.628;2023-02-28T05:08:40;5.54;91.59
76857;DHT22;66179;44.686;37.628;2023-02-28T05:13:44;5.67;91.56
76857;DHT22;66179;44.686;37.628;2023-02-28T05:16:11;5.77;91.39
76857;DHT22;66179;44.686;37.628;2023-02-28T05:18:38;5.89;90.95
76857;DHT22;66179;44.686;37.628;2023-02-28T05:21:05;6.02;90.39
76857;DHT22;66179;44.686;37.628;2023-02-28T05:23:32;6.15;90.35
76857;DHT22;66179;44.686;37.628;2023-02-28T05:25:59;6.23;89.87
76857;DHT22;66179;44.686;37.628;2023-02-28T05:28:26;6.31;89.28
76857;DHT22;66179;44.686;37.628;2023-02-28T05:30:53;6.40;88.83
76857;DHT22;66179;44.686;37.628;2023-02-28T05:33:19;6.45;88.75
76857;DHT22;66179;44.686;37.628;2023-02-28T05:35:46;6.57;88.95
76857;DHT22;66179;44.686;37.628;2023-02-28T05:38:13;6.70;88.50
76857;DHT22;66179;44.686;37.628;2023-02-28T05:40:40;6.86;88.36
76857;DHT22;66179;44.686;37.628;2023-02-28T05:43:10;7.05;88.75
76857;DHT22;66179;44.686;37.628;2023-02-28T05:45:38;7.19;87.98
76857;DHT22;66179;44.686;37.628;2023-02-28T05:48:05;7.28;86.57
76857;DHT22;66179;44.686;37.628;2023-02-28T05:50:32;7.40;86.62
76857;DHT22;66179;44.686;37.628;2023-02-28T05:52:58;7.49;86.43
76857;DHT22;66179;44.686;37.628;2023-02-28T05:55:25;7.61;86.35
76857;DHT22;66179;44.686;37.628;2023-02-28T05:57:52;7.68;86.27
76857;DHT22;66179;44.686;37.628;2023-02-28T06:00:19;7.74;85.60
76857;DHT22;66179;44.686;37.628;2023-02-28T06:02:46;7.81;85.99
76857;DHT22;66179;44.686;37.628;2023-02-28T06:05:15;7.92;85.42
76857;DHT22;66179;44.686;37.628;2023-02-28T06:07:42;7.97;84.61
76857;DHT22;66179;44.686;37.628;2023-02-28T06:10:11;8.12;84.77
76857;DHT22;66179;44.686;37.628;2023-02-28T06:12:38;8.23;84.72
76857;DHT22;66179;44.686;37.628;2023-02-28T06:15:05;8.36;84.13
76857;DHT22;66179;44.686;37.628;2023-02-28T06:17:32;8.43;83.50
76857;DHT22;66179;44.686;37.628;2023-02-28T06:19:59;8.57;83.71
76857;DHT22;66179;44.686;37.628;2023-02-28T06:22:26;8.74;83.97
76857;DHT22;66179;44.686;37.628;2023-02-28T06:24:53;8.88;82.07
76857;DHT22;66179;44.686;37.628;2023-02-28T06:27:21;9.03;82.15
76857;DHT22;66179;44.686;37.628;2023-02-28T06:29:48;9.20;82.38
76857;DHT22;66179;44.686;37.628;2023-02-28T06:32:15;9.30;81.33
76857;DHT22;66179;44.686;37.628;2023-02-28T06:34:41;9.41;81.56
76857;DHT22;66179;44.686;37.628;2023-02-28T06:37:08;9.47;81.91
76857;DHT22;66179;44.686;37.628;2023-02-28T06:39:35;9.60;81.33
76857;DHT22;66179;44.686;37.628;2023-02-28T06:42:02;9.71;81.68
76857;DHT22;66179;44.686;37.628;2023-02-28T06:44:29;9.83;80.56
76857;DHT22;66179;44.686;37.628;2023-02-28T06:47:03;9.94;80.62
76857;DHT22;66179;44.686;37.628;2023-02-28T06:49:30;10.09;81.11
76857;DHT22;66179;44.686;37.628;2023-02-28T06:51:58;10.27;80.05
76857;DHT22;66179;44.686;37.628;2023-02-28T06:54:24;10.44;79.89
76857;DHT22;66179;44.686;37.628;2023-02-28T06:56:51;10.64;78.22
76857;DHT22;66179;44.686;37.628;2023-02-28T06:59:20;10.81;78.00
76857;DHT22;66179;44.686;37.628;2023-02-28T07:01:47;10.89;77.73
76857;DHT22;66179;44.686;37.628;2023-02-28T07:04:14;11.03;77.11
76857;DHT22;66179;44.686;37.628;2023-02-28T07:06:40;11.19;77.52
76857;DHT22;66179;44.686;37.628;2023-02-28T07:09:07;11.32;76.02
76857;DHT22;66179;44.686;37.628;2023-02-28T07:11:34;11.47;75.01
76857;DHT22;66179;44.686;37.628;2023-02-28T07:14:01;11.61;74.12
76857;DHT22;66179;44.686;37.628;2023-02-28T07:16:28;11.75;74.16
76857;DHT22;66179;44.686;37.628;2023-02-28T07:18:55;11.90;74.20
76857;DHT22;66179;44.686;37.628;2023-02-28T07:21:22;12.05;73.07
76857;DHT22;66179;44.686;37.628;2023-02-28T07:23:49;12.15;71.90
76857;DHT22;66179;44.686;37.628;2023-02-28T07:26:18;12.26;73.67
76857;DHT22;66179;44.686;37.628;2023-02-28T07:28:46;12.41;67.30
76857;DHT22;66179;44.686;37.628;2023-02-28T07:31:14;12.63;64.74
76857;DHT22;66179;44.686;37.628;2023-02-28T07:33:41;12.81;63.61
76857;DHT22;66179;44.686;37.628;2023-02-28T07:36:14;12.94;63.40
76857;DHT22;66179;44.686;37.628;2023-02-28T07:38:43;13.05;62.28
76857;DHT22;66179;44.686;37.628;2023-02-28T07:41:10;13.18;63.17
76857;DHT22;66179;44.686;37.628;2023-02-28T07:43:37;13.27;62.07
76857;DHT22;66179;44.686;37.628;2023-02-28T07:46:06;13.36;61.81
76857;DHT22;66179;44.686;37.628;2023-02-28T07:48:33;13.45;60.99
76857;DHT22;66179;44.686;37.628;2023-02-28T07:51:00;13.51;62.45
76857;DHT22;66179;44.686;37.628;2023-02-28T07:53:28;13.60;62.02
76857;DHT22;66179;44.686;37.628;2023-02-28T07:56:00;13.64;60.96
76857;DHT22;66179;44.686;37.628;2023-02-28T07:58:28;13.64;61.07
76857;DHT22;66179;44.686;37.628;2023-02-28T08:00:55;13.73;61.61
76857;DHT22;66179;44.686;37.628;2023-02-28T08:03:23;13.77;60.91
76857;DHT22;66179;44.686;37.628;2023-02-28T08:05:50;13.79;60.96
76857;DHT22;66179;44.686;37.628;2023-02-28T08:08:19;13.85;61.76
76857;DHT22;66179;44.686;37.628;2023-02-28T08:10:45;13.84;60.87
76857;DHT22;66179;44.686;37.628;2023-02-28T08:13:12;13.86;61.14
76857;DHT22;66179;44.686;37.628;2023-02-28T08:15:41;13.92;60.57
76857;DHT22;66179;44.686;37.628;2023-02-28T08:18:09;13.93;60.57
76857;DHT22;66179;44.686;37.628;2023-02-28T08:20:36;13.94;60.41
76857;DHT22;66179;44.686;37.628;2023-02-28T08:23:03;13.93;60.38
76857;DHT22;66179;44.686;37.628;2023-02-28T08:25:30;13.93;60.46
76857;DHT22;66179;44.686;37.628;2023-02-28T08:27:57;13.97;60.46
76857;DHT22;66179;44.686;37.628;2023-02-28T08:30:23;14.00;60.47
76857;DHT22;66179;44.686;37.628;2023-02-28T08:32:50;14.07;60.48
76857;DHT22;66179;44.686;37.628;2023-02-28T08:35:17;14.10;59.86
76857;DHT22;66179;44.686;37.628;2023-02-28T08:37:44;14.13;60.27
76857;DHT22;66179;44.686;37.628;2023-02-28T08:40:11;14.12;60.12
76857;DHT22;66179;44.686;37.628;2023-02-28T08:42:45;14.19;60.67
76857;DHT22;66179;44.686;37.628;2023-02-28T08:45:13;14.24;60.06
76857;DHT22;66179;44.686;37.628;2023-02-28T08:47:41;14.33;60.50
76857;DHT22;66179;44.686;37.628;2023-02-28T08:50:08;14.30;60.64
76857;DHT22;66179;44.686;37.628;2023-02-28T08:52:35;14.35;59.00
76857;DHT22;66179;44.686;37.628;2023-02-28T08:55:01;14.29;59.39
76857;DHT22;66179;44.686;37.628;2023-02-28T08:57:28;14.33;59.09
76857;DHT22;66179;44.686;37.628;2023-02-28T08:59:55;14.30;58.91
76857;DHT22;66179;44.686;37.628;2023-02-28T09:02:22;14.37;59.41
76857;DHT22;66179;44.686;37.628;2023-02-28T09:04:48;14.38;59.11
76857;DHT22;66179;44.686;37.628;2023-02-28T09:07:15;14.41;60.01
76857;DHT22;66179;44.686;37.628;2023-02-28T09:09:42;14.48;60.18
76857;DHT22;66179;44.686;37.628;2023-02-28T09:12:24;14.47;59.98
76857;DHT22;66179;44.686;37.628;2023-02-28T09:14:51;14.43;60.58
76857;DHT22;66179;44.686;37.628;2023-02-28T09:17:18;14.48;60.38
76857;DHT22;66179;44.686;37.628;2023-02-28T09:19:47;14.45;61.05
76857;DHT22;66179;44.686;37.628;2023-02-28T09:22:14;14.44;61.00
76857;DHT22;66179;44.686;37.628;2023-02-28T09:24:42;14.55;60.80
76857;DHT22;66179;44.686;37.628;2023-02-28T09:27:11;14.59;60.75
76857;DHT22;66179;44.686;37.628;2023-02-28T09:29:37;14.71;61.11
76857;DHT22;66179;44.686;37.628;2023-02-28T09:32:04;14.80;59.89
76857;DHT22;66179;44.686;37.628;2023-02-28T09:34:34;14.79;60.21
76857;DHT22;66179;44.686;37.628;2023-02-28T09:37:03;14.75;61.05
76857;DHT22;66179;44.686;37.628;2023-02-28T09:39:29;14.84;60.51
76857;DHT22;66179;44.686;37.628;2023-02-28T09:41:56;14.99;60.82
76857;DHT22;66179;44.686;37.628;2023-02-28T09:44:38;15.19;59.21
76857;DHT22;66179;44.686;37.628;2023-02-28T09:47:35;15.37;58.85
76857;DHT22;66179;44.686;37.628;2023-02-28T09:50:29;15.63;58.64
76857;DHT22;66179;44.686;37.628;2023-02-28T09:52:56;15.66;60.09
76857;DHT22;66179;44.686;37.628;2023-02-28T09:58:02;16.11;57.68
76857;DHT22;66179;44.686;37.628;2023-02-28T10:00:33;16.26;57.03
76857;DHT22;66179;44.686;37.628;2023-02-28T10:05:42;16.66;56.81
76857;DHT22;66179;44.686;37.628;2023-02-28T10:08:32;16.92;54.90
76857;DHT22;66179;44.686;37.628;2023-02-28T10:11:06;16.89;56.10
76857;DHT22;66179;44.686;37.628;2023-02-28T10:13:36;16.87;54.68
76857;DHT22;66179;44.686;37.628;2023-02-28T10:16:18;17.02;56.02
76857;DHT22;66179;44.686;37.628;2023-02-28T10:18:49;17.06;55.78
76857;DHT22;66179;44.686;37.628;2023-02-28T10:21:27;16.81;55.61
76857;DHT22;66179;44.686;37.628;2023-02-28T10:24:02;16.79;55.69
76857;DHT22;66179;44.686;37.628;2023-02-28T10:26:31;16.63;56.41
76857;DHT22;66179;44.686;37.628;2023-02-28T10:28:58;16.75;58.09
76857;DHT22;66179;44.686;37.628;2023-02-28T10:31:25;17.06;56.93
76857;DHT22;66179;44.686;37.628;2023-02-28T10:33:51;17.28;56.32
76857;DHT22;66179;44.686;37.628;2023-02-28T10:36:23;17.18;58.00
76857;DHT22;66179;44.686;37.628;2023-02-28T10:38:49;17.33;57.75
76857;DHT22;66179;44.686;37.628;2023-02-28T10:41:28;17.28;55.46
76857;DHT22;66179;44.686;37.628;2023-02-28T10:44:22;17.22;55.68
76857;DHT22;66179;44.686;37.628;2023-02-28T10:46:50;17.17;56.55
76857;DHT22;66179;44.686;37.628;2023-02-28T10:49:26;16.80;57.24
76857;DHT22;66179;44.686;37.628;2023-02-28T10:51:56;16.56;58.15
76857;DHT22;66179;44.686;37.628;2023-02-28T10:54:32;16.35;58.84
76857;DHT22;66179;44.686;37.628;2023-02-28T10:57:21;16.21;59.55
76857;DHT22;66179;44.686;37.628;2023-02-28T11:00:16;16.34;59.66
76857;DHT22;66179;44.686;37.628;2023-02-28T11:02:44;16.46;60.17
76857;DHT22;66179;44.686;37.628;2023-02-28T11:05:32;16.46;60.60
76857;DHT22;66179;44.686;37.628;2023-02-28T11:08:12;16.40;60.23
76857;DHT22;66179;44.686;37.628;2023-02-28T11:10:46;16.42;61.49
76857;DHT22;66179;44.686;37.628;2023-02-28T11:13:21;16.51;60.80
76857;DHT22;66179;44.686;37.628;2023-02-28T11:15:55;16.59;59.43
76857;DHT22;66179;44.686;37.628;2023-02-28T11:18:32;16.54;59.28
76857;DHT22;66179;44.686;37.628;2023-02-28T11:21:02;16.45;60.17
76857;DHT22;66179;44.686;37.628;2023-02-28T11:23:30;16.44;61.62
76857;DHT22;66179;44.686;37.628;2023-02-28T11:26:00;16.70;59.51
76857;DHT22;66179;44.686;37.628;2023-02-28T11:28:32;16.75;58.22
76857;DHT22;66179;44.686;37.628;2023-02-28T11:31:14;16.73;57.61
76857;DHT22;66179;44.686;37.628;2023-02-28T11:33:49;16.61;58.03
76857;DHT22;66179;44.686;37.628;2023-02-28T11:36:30;16.63;58.16
76857;DHT22;66179;44.686;37.628;2023-02-28T11:39:08;16.28;60.30
76857;DHT22;66179;44.686;37.628;2023-02-28T11:44:35;15.90;62.33
76857;DHT22;66179;44.686;37.628;2023-02-28T11:47:31;15.86;60.50
76857;DHT22;66179;44.686;37.628;2023-02-28T11:53:02;15.65;62.89
76857;DHT22;66179;44.686;37.628;2023-02-28T11:55:43;15.40;63.76
76857;DHT22;66179;44.686;37.628;2023-02-28T12:01:24;15.27;62.91
76857;DHT22;66179;44.686;37.628;2023-02-28T12:12:57;14.95;64.74
76857;DHT22;66179;44.686;37.628;2023-02-28T12:21:09;14.86;66.53
76857;DHT22;66179;44.686;37.628;2023-02-28T12:23:57;14.91;66.58
76857;DHT22;66179;44.686;37.628;2023-02-28T12:26:36;14.98;66.16
76857;DHT22;66179;44.686;37.628;2023-02-28T12:32:05;15.18;65.24
76857;DHT22;66179;44.686;37.628;2023-02-28T12:34:37;15.36;64.88
76857;DHT22;66179;44.686;37.628;2023-02-28T12:37:09;15.39;63.92
76857;DHT22;66179;44.686;37.628;2023-02-28T12:39:41;15.30;64.62
76857;DHT22;66179;44.686;37.628;2023-02-28T12:42:13;15.13;64.11
76857;DHT22;66179;44.686;37.628;2023-02-28T12:45:02;14.92;64.59
76857;DHT22;66179;44.686;37.628;2023-02-28T12:47:31;14.75;64.21
76857;DHT22;66179;44.686;37.628;2023-02-28T12:50:08;14.63;64.93
76857;DHT22;66179;44.686;37.628;2023-02-28T12:58:35;14.22;66.17
76857;DHT22;66179;44.686;37.628;2023-02-28T13:09:15;13.43;68.45
76857;DHT22;66179;44.686;37.628;2023-02-28T13:11:49;13.27;69.28
76857;DHT22;66179;44.686;37.628;2023-02-28T13:14:27;13.11;69.67
76857;DHT22;66179;44.686;37.628;2023-02-28T13:17:23;12.91;70.57
76857;DHT22;66179;44.686;37.628;2023-02-28T13:22:38;12.72;71.82
76857;DHT22;66179;44.686;37.628;2023-02-28T13:28:01;12.72;71.65
76857;DHT22;66179;44.686;37.628;2023-02-28T13:38:49;12.14;74.09
76857;DHT22;66179;44.686;37.628;2023-02-28T13:49:29;11.84;74.78
76857;DHT22;66179;44.686;37.628;2023-02-28T13:52:12;11.74;75.07
76857;DHT22;66179;44.686;37.628;2023-02-28T14:06:35;11.10;76.23
76857;DHT22;66179;44.686;37.628;2023-02-28T14:09:16;10.92;76.70
76857;DHT22;66179;44.686;37.628;2023-02-28T14:11:45;10.77;77.69
76857;DHT22;66179;44.686;37.628;2023-02-28T14:17:17;10.53;78.41
76857;DHT22;66179;44.686;37.628;2023-02-28T14:19:45;10.41;78.89
76857;DHT22;66179;44.686;37.628;2023-02-28T14:25:10;10.21;79.53
76857;DHT22;66179;44.686;37.628;2023-02-28T14:33:18;9.75;80.63
76857;DHT22;66179;44.686;37.628;2023-02-28T14:38:31;9.76;80.46
76857;DHT22;66179;44.686;37.628;2023-02-28T14:41:00;9.67;80.59
76857;DHT22;66179;44.686;37.628;2023-02-28T14:43:28;9.60;80.76
76857;DHT22;66179;44.686;37.628;2023-02-28T14:45:58;9.48;81.21
76857;DHT22;66179;44.686;37.628;2023-02-28T14:48:26;9.45;81.37
76857;DHT22;66179;44.686;37.628;2023-02-28T14:50:58;9.40;81.20
76857;DHT22;66179;44.686;37.628;2023-02-28T14:53:34;9.41;81.70
76857;DHT22;66179;44.686;37.628;2023-02-28T14:56:02;9.39;81.35
76857;DHT22;66179;44.686;37.628;2023-02-28T14:58:31;9.33;81.33
76857;DHT22;66179;44.686;37.628;2023-02-28T15:01:00;9.31;81.52
76857;DHT22;66179;44.686;37.628;2023-02-28T15:03:37;9.24;81.32
76857;DHT22;66179;44.686;37.628;2023-02-28T15:06:17;9.09;82.07
76857;DHT22;66179;44.686;37.628;2023-02-28T15:08:45;9.01;82.72
76857;DHT22;66179;44.686;37.628;2023-02-28T15:11:15;8.90;82.60
76857;DHT22;66179;44.686;37.628;2023-02-28T15:13:53;8.81;82.09
76857;DHT22;66179;44.686;37.628;2023-02-28T15:16:35;8.71;82.38
76857;DHT22;66179;44.686;37.628;2023-02-28T15:19:06;8.60;82.49
76857;DHT22;66179;44.686;37.628;2023-02-28T15:21:36;8.48;83.07
76857;DHT22;66179;44.686;37.628;2023-02-28T15:26:45;8.26;83.20
76857;DHT22;66179;44.686;37.628;2023-02-28T15:29:15;8.19;83.48
76857;DHT22;66179;44.686;37.628;2023-02-28T15:31:46;8.09;84.02
76857;DHT22;66179;44.686;37.628;2023-02-28T15:34:26;8.12;83.57
76857;DHT22;66179;44.686;37.628;2023-02-28T15:36:54;8.15;83.61
76857;DHT22;66179;44.686;37.628;2023-02-28T15:39:28;8.09;83.29
76857;DHT22;66179;44.686;37.628;2023-02-28T15:42:30;7.93;82.97
76857;DHT22;66179;44.686;37.628;2023-02-28T15:44:57;7.86;83.01
76857;DHT22;66179;44.686;37.628;2023-02-28T15:47:27;7.73;83.16
76857;DHT22;66179;44.686;37.628;2023-02-28T15:50:03;7.64;83.49
76857;DHT22;66179;44.686;37.628;2023-02-28T15:52:41;7.60;83.69
76857;DHT22;66179;44.686;37.628;2023-02-28T15:55:19;7.53;84.31
76857;DHT22;66179;44.686;37.628;2023-02-28T15:57:49;7.56;84.17
76857;DHT22;66179;44.686;37.628;2023-02-28T16:00:21;7.55;84.32
76857;DHT22;66179;44.686;37.628;2023-02-28T16:02:47;7.47;84.01
76857;DHT22;66179;44.686;37.628;2023-02-28T16:05:24;7.33;84.57
76857;DHT22;66179;44.686;37.628;2023-02-28T16:08:00;7.27;84.62
76857;DHT22;66179;44.686;37.628;2023-02-28T16:10:29;7.20;84.86
76857;DHT22;66179;44.686;37.628;2023-02-28T16:12:56;7.19;85.35
76857;DHT22;66179;44.686;37.628;2023-02-28T16:15:29;7.19;85.26
76857;DHT22;66179;44.686;37.628;2023-02-28T16:17:57;7.14;85.56
76857;DHT22;66179;44.686;37.628;2023-02-28T16:20:25;7.16;85.32
76857;DHT22;66179;44.686;37.628;2023-02-28T16:22:52;7.19;85.48
76857;DHT22;66179;44.686;37.628;2023-02-28T16:25:23;7.18;85.19
76857;DHT22;66179;44.686;37.628;2023-02-28T16:27:52;7.11;85.55
76857;DHT22;66179;44.686;37.628;2023-02-28T16:30:28;7.00;85.75
76857;DHT22;66179;44.686;37.628;2023-02-28T16:32:58;6.95;86.15
76857;DHT22;66179;44.686;37.628;2023-02-28T16:35:25;6.88;86.17
76857;DHT22;66179;44.686;37.628;2023-02-28T16:37:52;6.91;86.07
76857;DHT22;66179;44.686;37.628;2023-02-28T16:40:22;6.87;86.12
76857;DHT22;66179;44.686;37.628;2023-02-28T16:42:51;6.81;86.41
76857;DHT22;66179;44.686;37.628;2023-02-28T16:45:23;6.75;86.64
76857;DHT22;66179;44.686;37.628;2023-02-28T16:47:52;6.60;87.15
76857;DHT22;66179;44.686;37.628;2023-02-28T16:50:25;6.53;87.51
76857;DHT22;66179;44.686;37.628;2023-02-28T16:52:53;6.48;87.72
76857;DHT22;66179;44.686;37.628;2023-02-28T16:55:22;6.38;87.81
76857;DHT22;66179;44.686;37.628;2023-02-28T16:57:55;6.31;87.93
76857;DHT22;66179;44.686;37.628;2023-02-28T17:00:23;6.27;88.41
76857;DHT22;66179;44.686;37.628;2023-02-28T17:02:54;6.22;88.76
76857;DHT22;66179;44.686;37.628;2023-02-28T17:05:22;6.15;88.91
76857;DHT22;66179;44.686;37.628;2023-02-28T17:07:49;6.11;88.96
76857;DHT22;66179;44.686;37.628;2023-02-28T17:10:25;6.07;89.15
76857;DHT22;66179;44.686;37.628;2023-02-28T17:12:52;5.97;89.21
76857;DHT22;66179;44.686;37.628;2023-02-28T17:15:20;5.92;89.06
76857;DHT22;66179;44.686;37.628;2023-02-28T17:17:49;5.87;89.38
76857;DHT22;66179;44.686;37.628;2023-02-28T17:20:26;5.83;89.35
76857;DHT22;66179;44.686;37.628;2023-02-28T17:22:54;5.75;89.99
76857;DHT22;66179;44.686;37.628;2023-02-28T17:25:24;5.71;90.11
76857;DHT22;66179;44.686;37.628;2023-02-28T17:27:51;5.71;90.29
76857;DHT22;66179;44.686;37.628;2023-02-28T17:30:26;5.68;90.21
76857;DHT22;66179;44.686;37.628;2023-02-28T17:32:56;5.63;90.26
76857;DHT22;66179;44.686;37.628;2023-02-28T17:35:23;5.63;90.26
76857;DHT22;66179;44.686;37.628;2023-02-28T17:37:50;5.64;90.00
76857;DHT22;66179;44.686;37.628;2023-02-28T17:40:22;5.57;90.21
76857;DHT22;66179;44.686;37.628;2023-02-28T17:43:10;5.55;90.50
76857;DHT22;66179;44.686;37.628;2023-02-28T17:45:37;5.56;90.89
76857;DHT22;66179;44.686;37.628;2023-02-28T17:48:11;5.53;90.86
76857;DHT22;66179;44.686;37.628;2023-02-28T17:50:39;5.55;90.89
76857;DHT22;66179;44.686;37.628;2023-02-28T17:53:08;5.55;90.73
76857;DHT22;66179;44.686;37.628;2023-02-28T17:55:36;5.50;91.05
76857;DHT22;66179;44.686;37.628;2023-02-28T17:58:03;5.55;90.74